createdAt,value
2018-06-27T00:00:18.643Z,23.3
2018-06-27T00:01:08.932Z,23.3
2018-06-27T00:01:59.394Z,23.3
2018-06-27T00:02:49.632Z,23.3
2018-06-27T00:03:39.722Z,23.3
2018-06-27T00:04:28.599Z,23.3
2018-06-27T00:05:19.523Z,23.3
2018-06-27T00:06:09.588Z,23.3
2018-06-27T00:06:59.654Z,23.3
2018-06-27T00:07:49.964Z,23.3
2018-06-27T00:08:39.254Z,23.3
2018-06-27T00:09:29.789Z,23.3
2018-06-27T00:10:19.398Z,23.3
2018-06-27T00:11:09.914Z,23.3
2018-06-27T00:11:58.892Z,23.3
2018-06-27T00:12:49.278Z,23.3
2018-06-27T00:13:39.327Z,23.3
2018-06-27T00:14:29.683Z,23.3
2018-06-27T00:15:19.771Z,23.3
2018-06-27T00:16:10.631Z,23.3
2018-06-27T00:17:00.146Z,23.3
2018-06-27T00:17:49.908Z,23.3
2018-06-27T00:18:39.738Z,23.3
2018-06-27T00:19:31.582Z,23.3
2018-06-27T00:20:20.423Z,23.3
2018-06-27T00:21:10.263Z,23.3
2018-06-27T00:22:01.067Z,23.3
2018-06-27T00:22:50.568Z,23.3
2018-06-27T00:23:40.622Z,23.3
2018-06-27T00:24:31.215Z,23.3
2018-06-27T00:25:21.005Z,23.3
2018-06-27T00:26:10.628Z,23.3
2018-06-27T00:27:00.882Z,23.3
2018-06-27T00:27:51.511Z,23.3
2018-06-27T00:28:40.665Z,23.3
2018-06-27T00:29:31.622Z,23.3
2018-06-27T00:30:21.109Z,23.3
2018-06-27T00:31:11.248Z,23.3
2018-06-27T00:32:01.769Z,23.3
2018-06-27T00:32:51.331Z,23.3
2018-06-27T00:33:41.945Z,23.3
2018-06-27T00:34:31.725Z,23.3
2018-06-27T00:35:21.786Z,23.3
2018-06-27T00:36:10.706Z,23.3
2018-06-27T00:37:02.145Z,23.3
2018-06-27T00:37:51.968Z,23.3
2018-06-27T00:38:41.740Z,23.3
2018-06-27T00:39:31.811Z,23.3
2018-06-27T00:40:22.419Z,23.3
2018-06-27T00:41:11.406Z,23.3
2018-06-27T00:42:02.045Z,23.3
2018-06-27T00:42:51.229Z,23.3
2018-06-27T00:43:42.111Z,23.3
2018-06-27T00:44:31.923Z,23.3
2018-06-27T00:45:21.977Z,23.3
2018-06-27T00:46:12.897Z,23.3
2018-06-27T00:47:02.368Z,23.3
2018-06-27T00:47:52.727Z,23.3
2018-06-27T00:48:42.540Z,23.4
2018-06-27T00:49:32.828Z,23.3
2018-06-27T00:50:23.209Z,23.3
2018-06-27T00:51:12.946Z,23.3
2018-06-27T00:52:02.837Z,23.4
2018-06-27T00:52:52.245Z,23.4
2018-06-27T00:53:42.504Z,23.4
2018-06-27T00:54:33.449Z,23.4
2018-06-27T00:55:22.763Z,23.4
2018-06-27T00:56:13.631Z,23.4
2018-06-27T00:57:03.719Z,23.4
2018-06-27T00:57:52.886Z,23.4
2018-06-27T00:58:43.805Z,23.4
2018-06-27T00:59:33.596Z,23.4
2018-06-27T01:00:23.652Z,23.4
2018-06-27T01:01:13.441Z,23.4
2018-06-27T01:02:02.965Z,23.4
2018-06-27T01:02:54.140Z,23.4
2018-06-27T01:03:43.894Z,23.4
2018-06-27T01:04:33.942Z,23.4
2018-06-27T01:05:24.302Z,23.4
2018-06-27T01:06:14.091Z,23.4
2018-06-27T01:07:04.432Z,23.4
2018-06-27T01:07:53.898Z,23.4
2018-06-27T01:08:44.576Z,23.4
2018-06-27T01:09:33.587Z,23.4
2018-06-27T01:10:24.649Z,23.4
2018-06-27T01:11:14.207Z,23.4
2018-06-27T01:12:04.549Z,23.4
2018-06-27T01:12:54.066Z,23.4
2018-06-27T01:13:44.947Z,23.4
2018-06-27T01:14:34.728Z,23.4
2018-06-27T01:15:25.095Z,23.4
2018-06-27T01:16:14.582Z,23.4
2018-06-27T01:17:04.367Z,23.5
2018-06-27T01:17:55.270Z,23.4
2018-06-27T01:18:44.791Z,23.5
2018-06-27T01:19:35.365Z,23.4
2018-06-27T01:20:24.854Z,23.5
2018-06-27T01:21:14.391Z,23.4
2018-06-27T01:22:05.290Z,23.5
2018-06-27T01:22:54.503Z,23.5
2018-06-27T01:23:45.691Z,23.5
2018-06-27T01:24:34.915Z,23.5
2018-06-27T01:25:25.262Z,23.5
2018-06-27T01:26:15.621Z,23.5
2018-06-27T01:27:05.767Z,23.5
2018-06-27T01:27:55.751Z,23.5
2018-06-27T01:28:45.821Z,23.5
2018-06-27T01:29:35.904Z,23.5
2018-06-27T01:30:25.364Z,23.5
2018-06-27T01:31:16.046Z,23.5
2018-06-27T01:32:06.335Z,23.5
2018-06-27T01:32:56.169Z,23.5
2018-06-27T01:33:45.643Z,23.5
2018-06-27T01:34:35.930Z,23.5
2018-06-27T01:35:26.396Z,23.5
2018-06-27T01:36:16.343Z,23.5
2018-06-27T01:37:06.464Z,23.5
2018-06-27T01:37:56.535Z,23.5
2018-06-27T01:38:45.998Z,23.6
2018-06-27T01:39:35.515Z,23.6
2018-06-27T01:40:27.031Z,23.5
2018-06-27T01:41:17.053Z,23.6
2018-06-27T01:42:05.937Z,23.6
2018-06-27T01:42:56.919Z,23.6
2018-06-27T01:43:47.196Z,23.5
2018-06-27T01:44:36.699Z,23.6
2018-06-27T01:45:26.495Z,23.6
2018-06-27T01:46:16.325Z,23.6
2018-06-27T01:47:06.354Z,23.6
2018-06-27T01:47:56.413Z,23.6
2018-06-27T01:48:46.757Z,23.6
2018-06-27T01:49:37.141Z,23.6
2018-06-27T01:50:27.725Z,23.6
2018-06-27T01:51:16.632Z,23.6
2018-06-27T01:52:07.565Z,23.6
2018-06-27T01:52:57.330Z,23.6
2018-06-27T01:53:47.388Z,23.6
2018-06-27T01:54:37.759Z,23.6
2018-06-27T01:55:27.582Z,23.6
2018-06-27T01:56:17.032Z,23.6
2018-06-27T01:57:08.277Z,23.6
2018-06-27T01:57:58.037Z,23.6
2018-06-27T01:58:47.219Z,23.6
2018-06-27T01:59:38.459Z,23.6
2018-06-27T02:00:28.483Z,23.6
2018-06-27T02:01:18.577Z,23.6
2018-06-27T02:02:08.305Z,23.6
2018-06-27T02:02:57.837Z,23.6
2018-06-27T02:03:48.131Z,23.6
2018-06-27T02:04:38.557Z,23.6
2018-06-27T02:05:27.748Z,23.6
2018-06-27T02:06:18.388Z,23.6
2018-06-27T02:07:08.990Z,23.6
2018-06-27T02:07:58.178Z,23.6
2018-06-27T02:08:48.778Z,23.6
2018-06-27T02:09:39.160Z,23.6
2018-06-27T02:10:29.010Z,23.7
2018-06-27T02:11:18.483Z,23.7
2018-06-27T02:12:09.071Z,23.7
2018-06-27T02:12:58.651Z,23.7
2018-06-27T02:13:48.919Z,23.8
2018-06-27T02:14:39.563Z,23.8
2018-06-27T02:15:29.301Z,23.8
2018-06-27T02:16:19.119Z,23.8
2018-06-27T02:17:09.687Z,23.9
2018-06-27T02:17:59.598Z,23.9
2018-06-27T02:18:49.310Z,23.9
2018-06-27T02:19:39.908Z,24
2018-06-27T02:20:29.462Z,24
2018-06-27T02:21:19.735Z,24.1
2018-06-27T02:22:08.983Z,24.1
2018-06-27T02:22:59.676Z,24.1
2018-06-27T02:23:50.251Z,24.2
2018-06-27T02:24:40.010Z,24.3
2018-06-27T02:25:29.521Z,24.3
2018-06-27T02:26:19.573Z,24.3
2018-06-27T02:27:10.244Z,24.4
2018-06-27T02:28:00.308Z,24.4
2018-06-27T02:28:50.052Z,24.5
2018-06-27T02:29:39.029Z,24.6
2018-06-27T02:30:30.434Z,24.6
2018-06-27T02:31:20.835Z,24.7
2018-06-27T02:32:10.357Z,24.8
2018-06-27T02:33:00.699Z,24.8
2018-06-27T02:33:50.732Z,24.8
2018-06-27T02:34:40.849Z,24.9
2018-06-27T02:35:30.249Z,25
2018-06-27T02:36:20.629Z,25.1
2018-06-27T02:37:10.742Z,25.1
2018-06-27T02:38:00.754Z,25.2
2018-06-27T02:38:51.135Z,25.3
2018-06-27T02:39:41.466Z,25.3
2018-06-27T02:40:31.000Z,25.4
2018-06-27T02:41:21.567Z,25.4
2018-06-27T02:42:10.784Z,25.6
2018-06-27T02:43:01.729Z,25.6
2018-06-27T02:43:51.194Z,25.7
2018-06-27T02:44:41.292Z,25.8
2018-06-27T02:45:31.594Z,25.9
2018-06-27T02:46:21.674Z,25.9
2018-06-27T02:47:11.799Z,26.1
2018-06-27T02:48:01.536Z,26.1
2018-06-27T02:48:52.189Z,26.2
2018-06-27T02:49:41.630Z,26.3
2018-06-27T02:50:32.289Z,26.4
2018-06-27T02:51:21.528Z,26.5
2018-06-27T02:52:12.236Z,26.6
2018-06-27T02:53:01.918Z,26.6
2018-06-27T02:53:52.261Z,26.8
2018-06-27T02:54:42.326Z,26.8
2018-06-27T02:55:32.423Z,26.9
2018-06-27T02:56:21.639Z,27
2018-06-27T02:57:12.831Z,27.1
2018-06-27T02:58:02.314Z,27.2
2018-06-27T02:58:52.071Z,27.3
2018-06-27T02:59:42.689Z,27.4
2018-06-27T03:00:32.196Z,27.5
2018-06-27T03:01:21.993Z,27.6
2018-06-27T03:02:12.366Z,27.7
2018-06-27T03:03:02.973Z,27.8
2018-06-27T03:03:52.448Z,27.9
2018-06-27T03:04:42.793Z,28
2018-06-27T03:05:32.585Z,28.1
2018-06-27T03:06:23.528Z,28.2
2018-06-27T03:07:13.320Z,28.3
2018-06-27T03:08:02.874Z,28.4
2018-06-27T03:08:53.106Z,28.4
2018-06-27T03:09:43.449Z,28.6
2018-06-27T03:10:33.242Z,28.7
2018-06-27T03:11:23.031Z,28.8
2018-06-27T03:12:13.385Z,28.9
2018-06-27T03:13:03.436Z,28.9
2018-06-27T03:13:53.478Z,29.1
2018-06-27T03:14:43.821Z,29.2
2018-06-27T03:15:33.919Z,29.3
2018-06-27T03:16:23.936Z,29.4
2018-06-27T03:17:14.000Z,29.5
2018-06-27T03:18:04.105Z,29.6
2018-06-27T03:18:54.414Z,29.8
2018-06-27T03:19:43.887Z,29.8
2018-06-27T03:20:34.765Z,29.9
2018-06-27T03:21:23.811Z,30.1
2018-06-27T03:22:14.404Z,30.1
2018-06-27T03:23:04.767Z,30.3
2018-06-27T03:23:54.200Z,30.4
2018-06-27T03:24:44.327Z,30.4
2018-06-27T03:25:34.536Z,30.6
2018-06-27T03:26:24.712Z,30.7
2018-06-27T03:27:14.202Z,30.8
2018-06-27T03:28:04.252Z,30.9
2018-06-27T03:28:55.213Z,31
2018-06-27T03:29:44.167Z,31.1
2018-06-27T03:30:35.562Z,31.2
2018-06-27T03:31:25.077Z,31.3
2018-06-27T03:32:14.617Z,31.4
2018-06-27T03:33:05.203Z,31.4
2018-06-27T03:33:55.572Z,31.5
2018-06-27T03:34:45.074Z,31.6
2018-06-27T03:35:34.839Z,31.7
2018-06-27T03:36:24.891Z,31.7
2018-06-27T03:37:15.758Z,31.8
2018-06-27T03:38:05.605Z,31.8
2018-06-27T03:38:55.335Z,31.9
2018-06-27T03:39:45.439Z,31.9
2018-06-27T03:40:35.508Z,31.9
2018-06-27T03:41:26.095Z,32
2018-06-27T03:42:16.186Z,32
2018-06-27T03:43:05.696Z,32.1
2018-06-27T03:43:56.012Z,32.1
2018-06-27T03:44:45.820Z,32.1
2018-06-27T03:45:35.878Z,32.1
2018-06-27T03:46:26.551Z,32.1
2018-06-27T03:47:15.970Z,32.2
2018-06-27T03:48:06.305Z,32.2
2018-06-27T03:48:56.659Z,32.2
2018-06-27T03:49:46.468Z,32.3
2018-06-27T03:50:36.563Z,32.3
2018-06-27T03:51:26.270Z,32.3
2018-06-27T03:52:16.651Z,32.3
2018-06-27T03:53:05.554Z,32.3
2018-06-27T03:53:56.775Z,32.3
2018-06-27T03:54:46.287Z,32.3
2018-06-27T03:55:36.037Z,32.3
2018-06-27T03:56:27.289Z,32.3
2018-06-27T03:57:17.358Z,32.3
2018-06-27T03:58:07.100Z,32.3
2018-06-27T03:58:57.119Z,32.3
2018-06-27T22:30:42.946Z,33.6
2018-06-27T22:31:47.985Z,33.6
2018-06-27T22:32:23.234Z,33.6
2018-06-27T22:33:13.430Z,33.6
2018-06-27T22:34:03.988Z,33.6
2018-06-27T22:34:53.085Z,33.6
2018-06-27T22:35:43.325Z,33.6
2018-06-27T22:36:33.505Z,33.6
2018-06-27T22:37:23.437Z,33.6
2018-06-27T22:38:13.801Z,33.6
2018-06-27T22:39:04.100Z,33.6
2018-06-27T22:39:54.219Z,33.6
2018-06-27T22:40:43.968Z,33.6
2018-06-27T22:41:34.746Z,33.6
2018-06-27T22:42:24.434Z,33.6
2018-06-27T22:43:14.192Z,33.6
2018-06-27T22:44:04.378Z,33.6
2018-06-27T22:44:54.532Z,33.6
2018-06-27T22:45:43.564Z,33.5
2018-06-27T22:46:34.151Z,33.6
2018-06-27T22:47:24.245Z,33.5
2018-06-27T22:49:07.727Z,33.6
2018-06-27T22:49:58.532Z,33.5
2018-06-27T22:50:48.382Z,33.5
2018-06-27T22:51:38.519Z,33.5
2018-06-27T22:52:28.857Z,33.5
2018-06-27T22:53:17.773Z,33.5
2018-06-27T22:54:08.414Z,33.5
2018-06-27T22:54:58.704Z,33.5
2018-06-27T22:55:49.069Z,33.5
2018-06-27T22:56:40.067Z,33.5
2018-06-27T22:57:29.206Z,33.5
2018-06-27T22:58:19.266Z,33.5
2018-06-27T22:59:09.509Z,33.5
2018-06-27T22:59:59.652Z,33.5
2018-06-27T23:00:49.149Z,33.5
2018-06-27T23:01:39.479Z,33.5
2018-06-27T23:02:29.578Z,33.5
2018-06-27T23:03:19.332Z,33.5
2018-06-27T23:04:24.374Z,33.5
2018-06-27T23:04:59.485Z,33.5
2018-06-27T23:05:49.982Z,33.4
2018-06-27T23:06:39.618Z,33.4
2018-06-27T23:07:29.934Z,33.4
2018-06-27T23:08:19.696Z,33.4
2018-06-27T23:09:24.198Z,33.4
2018-06-27T23:09:59.614Z,33.4
2018-06-27T23:10:49.946Z,33.4
2018-06-27T23:11:39.445Z,33.4
2018-06-27T23:12:29.203Z,33.4
2018-06-27T23:13:20.133Z,33.4
2018-06-27T23:14:09.484Z,33.4
2018-06-27T23:15:00.164Z,33.4
2018-06-27T23:15:49.910Z,33.4
2018-06-27T23:16:40.309Z,33.4
2018-06-27T23:17:30.426Z,33.4
2018-06-27T23:18:20.946Z,33.4
2018-06-27T23:19:10.524Z,33.4
2018-06-27T23:20:00.577Z,33.4
2018-06-27T23:21:05.277Z,33.4
2018-06-27T23:21:40.982Z,33.4
2018-06-27T23:22:31.047Z,33.4
2018-06-27T23:23:20.921Z,33.4
2018-06-27T23:24:10.643Z,33.4
2018-06-27T23:25:01.039Z,33.4
2018-06-27T23:25:50.617Z,33.4
2018-06-27T23:26:41.566Z,33.4
2018-06-27T23:27:31.556Z,33.4
2018-06-27T23:28:21.201Z,33.4
2018-06-27T23:29:11.821Z,33.4
2018-06-27T23:30:01.702Z,33.4
